Search for airport 
image banner adimage banner adimage banner ad
image banner ad

7PS5 - Muncy Valley Hospital

Located in Muncy, United States

ICAO - 7PS5, IATA -

Data provided by Airmate  

General information

Coordinates: N41°12'39" W76°46'24"
Elevation is 500 feet MSL.
Magnetic variation is -12° East
View others Airports in Pennsylvania

Operational data

Special qualification required
Current time UTC:
Current local time:
Weather at : KIPT - Williamsport Rgnl ( 13 km )
METAR: KIPT 182254Z 17006KT 10SM CLR 26/08 A3022 RMK AO2 SLP232 T02560083
TAF: KIPT 182225Z 1822/1918 VRB04KT P6SM FEW080 FM190100 00000KT P6SM SKC FM191700 VRB04KT P6SM SCT250
View NOTAMs / SUP AIP / TFR affecting this airport [VIEW]
Communications frequencies: [VIEW]

Runways:

Airport contact information

Address: Muncy United States

Satellite view of 7PS5